Montrose, Ohio
Current Conditions -  °F | °C
As of 3:54 AM on Saturday 22 Nov 2014 (Local Time) from KAKR Reporting Station
Clear Clear  
Wind Chill: 15°   Ceiling: Unl
Heat Index: 23°   Visibility: 10mi
Dew Point:   Wind: 7mph
Humidity: 55%   Direction: 180°S
Pressure: 30.32"   Gusts: NA
Location:  41.1631°N, 81.6352°W
Report Text: KAKR 220854Z AUTO 18006KT 10SM CLR M05/M13 A3032 RMK AO2 SLP282 T10501128 57017
Loading
Personal Weather Stations






























Interactive Weather Map New forecast layout! Learn more

10-Day Weather Forecast

Advertisements
Track Severe Weather on mobile